OPA Logo
 
ASOS:
At:2021.01.25 0435 UTC
Wind:270° @ 4KT
Viz: 10 mile(s)
Sky: mostly clear
Temp: 30 F (-1 C)
DewP: 24 F (-4 C):1
RH: 26 F (-3 C)
Baro: 26 F (-3 C)
ob: KBDN 250435Z AUTO 27004KT 10SM FEW060 M01/M03 A2969 RMK AO2

ASOS: KRDM
At:2021.01.25 0404 UTC
Wind:220° @ 4KT
Viz: 5 mile(s)
Sky: overcast
Temp: mist
DewP: 28.9 F (-1.7 C)
RH: 23 F (-5 C):1
Baro: 23 F (-5 C):1
ob: KRDM 250404Z 22004KT 5SM BR FEW001 SCT019 OVC050 M02/M03 A2967 RMK AO2 T10171033
Apache-SSL Logo

Valid HTML 4.01!

Central Oregon OPA Chapter

Chapter Officers 2006:

President
Gary E. Miller
109 NW Wilmington Ave.
Bend OR 97701
541 382-8588
gem@rellim.com

Vice President:
Open

Secretary/Treasurer:
Don Wilfong
210 SE Cessna Dr
Bend OR 97702
541 389-1456
dwnw@bendbroadband.com


Web page by: gem@rellim.com